Time;durP1;ratioP1;P1;durP2;ratioP2;P2;SDS_P1;SDS_P2;PMS_P1;PMS_P2;Temp;Humidity;BMP_temperature;BMP_pressure;BME280_temperature;BME280_humidity;BME280_pressure;Samples;Min_cycle;Max_cycle;Signal;HPM_P1;HPM_P2
2022/02/11 00:02:17;;;;;;;14.20;2.33;;;6.60;99.90;;;;;;5094671;27;38587;-79
2022/02/11 00:07:14;;;;;;;16.80;2.20;;;6.60;99.90;;;;;;5099083;27;38205;-79
2022/02/11 00:09:40;;;;;;;18.40;2.43;;;6.60;99.90;;;;;;5088382;27;40397;-79
2022/02/11 00:12:10;;;;;;;8.87;2.10;;;6.60;99.90;;;;;;5107804;27;38074;-79
2022/02/11 00:14:55;;;;;;;15.13;1.97;;;6.60;99.90;;;;;;5107170;27;39078;-80
2022/02/11 00:17:21;;;;;;;18.83;2.53;;;6.70;99.90;;;;;;5079389;27;37001;-80
2022/02/11 00:19:47;;;;;;;9.53;2.23;;;6.80;99.90;;;;;;5078321;27;39236;-80
2022/02/11 00:22:13;;;;;;;16.10;2.83;;;6.80;99.90;;;;;;5083332;27;39487;-80
2022/02/11 00:24:39;;;;;;;12.47;2.30;;;6.80;99.90;;;;;;5086283;27;39161;-80
2022/02/11 00:34:59;;;;;;;16.57;2.90;;;6.90;99.90;;;;;;5107623;27;38439;-80
2022/02/11 00:37:26;;;;;;;13.47;2.30;;;6.90;99.90;;;;;;5090156;27;36260;-80
2022/02/11 01:04:33;;;;;;;14.07;2.80;;;7.00;99.90;;;;;;5097235;27;49553;-80
2022/02/11 01:07:00;;;;;;;12.53;3.40;;;6.90;99.90;;;;;;5100621;27;39514;-80
2022/02/11 01:09:26;;;;;;;14.17;2.50;;;6.90;99.90;;;;;;5099050;27;35952;-80
2022/02/11 01:11:55;;;;;;;19.43;3.23;;;7.00;99.90;;;;;;5097827;27;39961;-80
2022/02/11 01:14:38;;;;;;;12.57;2.70;;;7.00;99.90;;;;;;5097980;27;37193;-80
2022/02/11 01:20:52;;;;;;;13.90;3.20;;;7.00;99.90;;;;;;5104845;27;37355;-80
2022/02/11 01:25:45;;;;;;;9.80;2.97;;;7.10;99.90;;;;;;5097867;27;39825;-80
2022/02/11 01:28:31;;;;;;;12.53;2.40;;;7.10;99.90;;;;;;5091990;27;36988;-79
2022/02/11 01:31:05;;;;;;;16.70;3.47;;;7.10;99.90;;;;;;5091897;27;35529;-81
2022/02/11 01:36:31;;;;;;;19.47;3.53;;;6.70;99.90;;;;;;5105608;27;37232;-80
2022/02/11 01:39:35;;;;;;;14.97;3.67;;;6.50;99.90;;;;;;5080445;27;38153;-80
2022/02/11 02:13:35;;;;;;;24.50;4.23;;;6.80;99.90;;;;;;5077732;27;37626;-81
2022/02/11 02:24:01;;;;;;;19.03;2.40;;;6.90;99.90;;;;;;5107478;27;39735;-80
2022/02/11 02:56:34;;;;;;;18.70;3.73;;;6.40;99.90;;;;;;5092143;27;39716;-80
2022/02/11 02:58:58;;;;;;;21.90;3.17;;;6.60;99.90;;;;;;5106052;27;49689;-81
2022/02/11 03:15:13;;;;;;;25.10;3.37;;;5.90;99.90;;;;;;5104555;27;38024;-78
2022/02/11 03:59:24;;;;;;;19.77;3.17;;;6.00;99.90;;;;;;5097741;27;37699;-79
2022/02/11 04:24:07;;;;;;;35.80;5.50;;;6.10;99.90;;;;;;5088676;27;38808;-80
2022/02/11 04:56:12;;;;;;;34.87;5.67;;;6.60;99.90;;;;;;5105541;27;36448;-79
2022/02/11 05:01:22;;;;;;;30.10;5.40;;;6.50;99.90;;;;;;5100477;27;38870;-79
2022/02/11 05:03:48;;;;;;;29.57;4.30;;;6.40;99.90;;;;;;5104455;27;38175;-79
2022/02/11 05:06:14;;;;;;;31.37;5.30;;;6.30;99.90;;;;;;5108992;27;38117;-79
2022/02/11 05:08:41;;;;;;;31.33;4.50;;;6.10;99.90;;;;;;5092076;27;39679;-80
2022/02/11 05:11:09;;;;;;;31.07;5.33;;;6.10;99.90;;;;;;5104262;27;39463;-80
2022/02/11 05:13:38;;;;;;;32.67;5.10;;;6.10;99.90;;;;;;5075948;27;37662;-78
2022/02/11 05:16:05;;;;;;;31.97;5.63;;;6.10;99.90;;;;;;5072228;27;36293;-79
2022/02/11 05:18:31;;;;;;;17.07;3.30;;;6.00;99.90;;;;;;5074109;27;39103;-80
2022/02/11 05:20:58;;;;;;;22.17;3.23;;;6.10;99.90;;;;;;5085883;27;37945;-79
2022/02/11 05:23:24;;;;;;;14.80;2.57;;;6.20;99.90;;;;;;5084280;27;37251;-79
2022/02/11 05:25:50;;;;;;;9.50;2.93;;;6.20;99.90;;;;;;5080349;27;38177;-79
2022/02/11 05:28:17;;;;;;;22.90;3.07;;;6.10;99.90;;;;;;5082900;27;37738;-79
2022/02/11 05:30:43;;;;;;;14.90;2.27;;;6.00;99.90;;;;;;5075104;27;39140;-79
2022/02/11 05:33:10;;;;;;;25.20;3.73;;;6.10;99.90;;;;;;5082906;27;38778;-79
2022/02/11 05:35:40;;;;;;;28.03;3.57;;;6.20;99.90;;;;;;5080944;27;37374;-79
2022/02/11 05:38:06;;;;;;;17.90;3.03;;;6.20;99.90;;;;;;5085300;27;38638;-79
2022/02/11 05:40:33;;;;;;;27.43;5.00;;;6.20;99.90;;;;;;5091965;27;38606;-79
2022/02/11 05:42:59;;;;;;;28.03;4.67;;;6.20;99.90;;;;;;5101134;27;37401;-79
2022/02/11 05:45:25;;;;;;;30.37;4.00;;;6.10;99.90;;;;;;5102946;27;36797;-81
2022/02/11 05:47:51;;;;;;;46.23;7.03;;;6.20;99.90;;;;;;5108930;27;39475;-80
2022/02/11 05:50:17;;;;;;;25.93;4.93;;;6.10;99.90;;;;;;5075381;27;38238;-80
2022/02/11 05:52:43;;;;;;;24.00;4.07;;;5.90;99.90;;;;;;5098864;27;38296;-78
2022/02/11 05:55:09;;;;;;;24.27;4.30;;;5.80;99.90;;;;;;5108052;27;37176;-78
2022/02/11 05:57:35;;;;;;;31.80;5.63;;;5.70;99.90;;;;;;5075151;27;39724;-78
2022/02/11 06:00:04;;;;;;;26.60;4.03;;;5.70;99.90;;;;;;5089075;27;37488;-78
2022/02/11 06:02:30;;;;;;;27.40;4.77;;;5.80;99.90;;;;;;5084934;27;38550;-79
2022/02/11 06:04:56;;;;;;;23.80;3.67;;;5.90;99.90;;;;;;5081917;27;36941;-79
2022/02/11 06:07:22;;;;;;;22.07;3.80;;;5.90;99.90;;;;;;5083761;27;39348;-79
2022/02/11 06:09:48;;;;;;;19.00;3.53;;;5.80;99.90;;;;;;5086073;27;39340;-79
2022/02/11 06:12:14;;;;;;;25.20;4.70;;;5.60;99.90;;;;;;5100254;27;39195;-79
2022/02/11 06:14:42;;;;;;;24.90;3.77;;;5.60;99.90;;;;;;5090296;27;36150;-80
2022/02/11 06:17:09;;;;;;;22.23;3.77;;;5.50;99.90;;;;;;5090478;27;36937;-81
2022/02/11 06:19:35;;;;;;;28.17;3.40;;;5.50;99.90;;;;;;5080715;27;39549;-81
2022/02/11 06:22:01;;;;;;;26.80;3.93;;;5.60;99.90;;;;;;5079788;27;39082;-78
2022/02/11 06:24:27;;;;;;;24.23;4.27;;;5.70;99.90;;;;;;5103669;27;48082;-79
2022/02/11 06:26:53;;;;;;;31.37;4.27;;;5.70;99.90;;;;;;5089566;27;39749;-81
2022/02/11 06:29:19;;;;;;;28.77;3.70;;;5.80;99.90;;;;;;5086172;27;39692;-81
2022/02/11 06:31:45;;;;;;;25.20;4.47;;;5.70;99.90;;;;;;5092940;27;41224;-81
2022/02/11 06:34:12;;;;;;;39.57;5.10;;;5.70;99.90;;;;;;5113508;27;38006;-80
2022/02/11 06:36:38;;;;;;;23.20;4.60;;;5.70;99.90;;;;;;5096155;27;39670;-82
2022/02/11 06:39:04;;;;;;;24.93;4.33;;;5.80;99.90;;;;;;5105519;27;38182;-81
2022/02/11 06:41:30;;;;;;;35.83;6.20;;;5.80;99.90;;;;;;5108443;27;40095;-81
2022/02/11 06:43:56;;;;;;;37.10;4.70;;;5.90;99.90;;;;;;5085039;27;37456;-81
2022/02/11 06:46:22;;;;;;;24.57;4.60;;;5.90;99.90;;;;;;5101169;27;38747;-81
2022/02/11 06:48:49;;;;;;;37.30;6.20;;;5.90;99.90;;;;;;5099558;27;39168;-81
2022/02/11 06:51:15;;;;;;;29.63;5.23;;;6.00;99.90;;;;;;5090496;27;39698;-81
2022/02/11 06:53:42;;;;;;;37.40;6.53;;;6.10;99.90;;;;;;5082062;27;36261;-81
2022/02/11 06:56:09;;;;;;;22.37;4.60;;;6.10;99.90;;;;;;5093777;27;37815;-80
2022/02/11 06:58:35;;;;;;;32.77;5.83;;;6.10;99.90;;;;;;5083800;27;40268;-81
2022/02/11 07:01:02;;;;;;;32.33;6.70;;;6.10;99.90;;;;;;5078629;27;38917;-80
2022/02/11 07:03:28;;;;;;;27.10;5.00;;;6.10;99.90;;;;;;5086791;27;38045;-80
2022/02/11 07:05:56;;;;;;;34.37;6.37;;;6.10;99.90;;;;;;5077403;27;39536;-81
2022/02/11 07:08:24;;;;;;;24.70;3.80;;;6.10;99.90;;;;;;5073083;27;38423;-80
2022/02/11 07:10:51;;;;;;;23.50;3.83;;;6.10;99.90;;;;;;5077739;27;39344;-80
2022/02/11 07:13:19;;;;;;;21.73;4.40;;;6.10;99.90;;;;;;5091273;27;39056;-81
2022/02/11 07:15:45;;;;;;;33.47;4.67;;;6.10;99.90;;;;;;5093254;27;38500;-81
2022/02/11 07:18:12;;;;;;;22.53;3.97;;;6.10;99.90;;;;;;5096868;27;40240;-80
2022/02/11 07:20:39;;;;;;;33.90;4.90;;;6.00;99.90;;;;;;5103331;27;39343;-80
2022/02/11 07:23:05;;;;;;;30.17;4.77;;;6.00;99.90;;;;;;5108029;27;38379;-80
2022/02/11 07:25:32;;;;;;;24.97;5.17;;;5.90;99.90;;;;;;5108430;27;37902;-80
2022/02/11 07:27:59;;;;;;;20.10;3.83;;;6.00;99.90;;;;;;5111014;27;37296;-81
2022/02/11 07:30:25;;;;;;;26.83;5.07;;;6.10;99.90;;;;;;5101033;27;39955;-80
2022/02/11 07:32:52;;;;;;;25.40;4.10;;;6.10;99.90;;;;;;5106676;27;37346;-81
2022/02/11 07:35:19;;;;;;;22.97;3.70;;;6.20;99.90;;;;;;5105690;27;38585;-80
2022/02/11 07:37:46;;;;;;;26.80;4.13;;;6.00;99.90;;;;;;5091144;27;38592;-80
2022/02/11 07:40:15;;;;;;;25.00;4.57;;;5.70;99.90;;;;;;5098673;27;38637;-78
2022/02/11 07:42:42;;;;;;;22.93;3.80;;;5.10;99.90;;;;;;5098457;27;37036;-77
2022/02/11 07:45:09;;;;;;;27.87;3.57;;;4.90;99.90;;;;;;5088414;27;40026;-77
2022/02/11 07:47:35;;;;;;;22.43;4.23;;;4.90;99.90;;;;;;5070561;27;39428;-78
2022/02/11 07:50:02;;;;;;;30.37;3.80;;;4.80;99.90;;;;;;5092617;27;38137;-77
2022/02/11 07:52:28;;;;;;;22.67;3.90;;;4.70;99.90;;;;;;5100853;27;37279;-78
2022/02/11 07:54:54;;;;;;;26.30;4.40;;;4.70;99.90;;;;;;5101774;27;39953;-78
2022/02/11 07:57:20;;;;;;;28.13;4.27;;;4.70;99.90;;;;;;5095647;27;40899;-78
2022/02/11 07:59:46;;;;;;;27.47;4.30;;;4.70;99.90;;;;;;5099340;27;39739;-78
2022/02/11 08:02:12;;;;;;;32.90;3.90;;;4.80;99.90;;;;;;5103670;27;37231;-78
2022/02/11 08:04:39;;;;;;;25.23;4.13;;;4.90;99.90;;;;;;5108111;27;40009;-78
2022/02/11 08:07:05;;;;;;;29.63;3.70;;;4.90;99.90;;;;;;5104354;27;37994;-78
2022/02/11 08:09:31;;;;;;;31.13;5.73;;;5.10;99.90;;;;;;5097734;27;38838;-78
2022/02/11 08:11:58;;;;;;;27.37;4.77;;;5.20;99.90;;;;;;5097006;27;37079;-80
2022/02/11 08:14:25;;;;;;;28.57;4.27;;;5.30;99.90;;;;;;5083838;27;38482;-78
2022/02/11 08:16:51;;;;;;;32.10;4.33;;;5.30;99.90;;;;;;5096181;27;37499;-78
2022/02/11 08:19:19;;;;;;;22.07;3.73;;;5.50;99.90;;;;;;5100568;27;39929;-78
2022/02/11 08:21:46;;;;;;;38.33;5.00;;;5.50;99.90;;;;;;5099922;27;37139;-78
2022/02/11 08:24:13;;;;;;;29.70;5.13;;;5.60;99.90;;;;;;5123189;27;39744;-78
2022/02/11 08:26:39;;;;;;;30.33;4.30;;;5.60;99.90;;;;;;5099649;27;37448;-78
2022/02/11 08:29:08;;;;;;;18.57;2.93;;;5.80;99.90;;;;;;5096993;27;37238;-78
2022/02/11 08:31:37;;;;;;;24.00;4.10;;;5.90;99.90;;;;;;5081563;27;48944;-77
2022/02/11 08:34:05;;;;;;;20.63;3.47;;;6.00;99.90;;;;;;5071664;27;39961;-79
2022/02/11 08:36:31;;;;;;;26.77;4.50;;;6.20;99.90;;;;;;5076593;27;40143;-79
2022/02/11 08:38:57;;;;;;;15.63;3.20;;;6.50;99.90;;;;;;5094949;27;39172;-79
2022/02/11 08:41:24;;;;;;;22.33;3.40;;;6.50;99.90;;;;;;5100804;27;37620;-80
2022/02/11 08:43:50;;;;;;;18.60;2.40;;;6.30;99.90;;;;;;5092260;27;37880;-78
2022/02/11 08:46:17;;;;;;;27.80;3.70;;;6.00;99.90;;;;;;5096955;27;38086;-79
2022/02/11 08:48:43;;;;;;;23.00;3.63;;;5.90;99.90;;;;;;5094733;27;37953;-80
2022/02/11 08:51:09;;;;;;;14.17;2.80;;;5.70;99.90;;;;;;5101323;27;37332;-79
2022/02/11 08:53:36;;;;;;;23.90;3.57;;;5.70;99.90;;;;;;5099751;27;40659;-80
2022/02/11 08:56:06;;;;;;;23.33;4.07;;;5.80;99.90;;;;;;5091397;27;41320;-79
2022/02/11 08:58:32;;;;;;;35.50;5.17;;;5.80;99.90;;;;;;5102098;27;38583;-80
2022/02/11 09:00:59;;;;;;;19.90;2.70;;;5.90;99.90;;;;;;5104379;27;36878;-80
2022/02/11 09:03:26;;;;;;;24.50;3.60;;;6.00;99.90;;;;;;5099178;27;38883;-81
2022/02/11 09:05:52;;;;;;;29.73;4.07;;;6.00;99.90;;;;;;5098143;27;37315;-79
2022/02/11 09:08:18;;;;;;;18.93;3.43;;;6.00;99.90;;;;;;5086147;27;38099;-81
2022/02/11 09:10:47;;;;;;;18.63;2.73;;;6.10;99.90;;;;;;5106770;27;36290;-82
2022/02/11 09:13:14;;;;;;;15.40;2.83;;;6.20;99.90;;;;;;5109973;27;38659;-81
2022/02/11 09:15:40;;;;;;;15.83;2.87;;;6.20;99.90;;;;;;5102593;27;38554;-80
2022/02/11 09:18:06;;;;;;;17.40;2.30;;;6.30;99.90;;;;;;5101103;27;39095;-80
2022/02/11 09:20:32;;;;;;;21.23;2.60;;;6.30;99.90;;;;;;5086240;27;36670;-79
2022/02/11 09:22:59;;;;;;;14.23;2.90;;;6.30;99.90;;;;;;5096775;27;38797;-82
2022/02/11 09:25:26;;;;;;;14.87;2.90;;;6.30;99.90;;;;;;5085255;27;39442;-81
2022/02/11 09:27:52;;;;;;;16.80;3.40;;;6.30;99.90;;;;;;5089996;27;40448;-81
2022/02/11 09:30:21;;;;;;;15.70;2.67;;;6.40;99.90;;;;;;5102631;27;35993;-82
2022/02/11 09:32:52;;;;;;;13.37;2.60;;;6.40;99.90;;;;;;5095553;27;39748;-82
2022/02/11 09:35:20;;;;;;;16.73;3.03;;;6.40;99.90;;;;;;5125606;27;42535;-81
2022/02/11 09:37:46;;;;;;;14.27;2.87;;;6.50;99.90;;;;;;5089829;27;37746;-82
2022/02/11 09:40:15;;;;;;;12.73;2.97;;;6.60;99.90;;;;;;5087075;27;37436;-81
2022/02/11 09:42:41;;;;;;;12.07;2.30;;;6.60;99.90;;;;;;5102099;27;39585;-82
2022/02/11 09:45:14;;;;;;;20.30;2.83;;;6.70;99.90;;;;;;5079729;27;20043;-81
2022/02/11 09:47:41;;;;;;;13.88;1.92;;;6.70;99.90;;;;;;5118444;27;38307;-81
2022/02/11 09:50:09;;;;;;;19.67;3.47;;;6.70;99.90;;;;;;5078049;27;38955;-81
2022/02/11 09:52:40;;;;;;;21.60;3.33;;;6.60;99.90;;;;;;5090626;27;39708;-81
2022/02/11 09:57:53;;;;;;;15.67;2.27;;;6.60;99.90;;;;;;5100731;27;39389;-82
2022/02/11 10:00:23;;;;;;;19.67;2.27;;;6.70;99.90;;;;;;5111180;27;37124;-82
2022/02/11 10:03:00;;;;;;;15.70;2.10;;;6.90;99.90;;;;;;5097736;27;39487;-83
2022/02/11 10:05:29;;;;;;;16.70;2.40;;;7.20;99.90;;;;;;5081233;27;47279;-82
2022/02/11 10:07:56;;;;;;;14.80;2.17;;;7.50;99.90;;;;;;5099212;27;37964;-82
2022/02/11 10:10:39;;;;;;;13.40;2.13;;;7.60;99.90;;;;;;5104122;27;37177;-81
2022/02/11 10:13:06;;;;;;;21.67;3.33;;;7.80;99.90;;;;;;5088464;27;40822;-80
2022/02/11 10:15:36;;;;;;;19.57;2.80;;;7.80;99.90;;;;;;5099384;27;39758;-82
2022/02/11 10:18:03;;;;;;;15.23;2.40;;;8.00;99.90;;;;;;5098301;27;37078;-81
2022/02/11 10:20:33;;;;;;;13.33;2.50;;;7.90;99.90;;;;;;5089265;27;36722;-81
2022/02/11 10:23:23;;;;;;;14.70;2.50;;;7.90;99.90;;;;;;5115469;27;40665;-80
2022/02/11 10:25:52;;;;;;;16.50;2.60;;;8.00;99.90;;;;;;5093611;27;47171;-80
2022/02/11 10:28:29;;;;;;;27.93;3.80;;;7.80;99.90;;;;;;5075909;27;38408;-81
2022/02/11 10:31:06;;;;;;;14.90;2.77;;;7.70;99.90;;;;;;5108050;27;36713;-81
2022/02/11 10:33:50;;;;;;;15.27;2.20;;;7.60;99.90;;;;;;5103888;27;48579;-81
2022/02/11 10:36:18;;;;;;;18.77;2.77;;;7.50;99.90;;;;;;5092192;27;38508;-81
2022/02/11 10:38:45;;;;;;;14.70;2.63;;;7.40;99.90;;;;;;5101019;27;38716;-81
2022/02/11 10:41:11;;;;;;;12.87;2.73;;;7.30;99.90;;;;;;5098274;27;38077;-80
2022/02/11 10:43:37;;;;;;;13.43;2.40;;;7.20;99.90;;;;;;5096947;27;40067;-81
2022/02/11 10:46:16;;;;;;;15.03;2.50;;;7.30;99.90;;;;;;5096610;27;41792;-82
2022/02/11 10:48:42;;;;;;;27.67;2.93;;;7.30;99.90;;;;;;5101599;27;38036;-80
2022/02/11 10:51:23;;;;;;;13.73;2.73;;;7.40;99.90;;;;;;5099822;27;38672;-80
2022/02/11 10:53:49;;;;;;;10.70;1.90;;;7.40;99.90;;;;;;5107659;27;39301;-80
2022/02/11 10:56:15;;;;;;;15.83;2.00;;;7.30;99.90;;;;;;5110433;27;38246;-81
2022/02/11 10:58:52;;;;;;;20.40;2.47;;;7.30;99.90;;;;;;5108832;27;38306;-80
2022/02/11 11:01:19;;;;;;;15.23;2.90;;;7.30;99.90;;;;;;5107385;27;38698;-80
2022/02/11 11:03:46;;;;;;;15.37;2.07;;;7.30;99.90;;;;;;5100131;27;39542;-83
2022/02/11 11:06:13;;;;;;;11.57;1.90;;;7.50;99.90;;;;;;5097095;27;40743;-80
2022/02/11 11:08:41;;;;;;;22.77;2.27;;;7.50;99.90;;;;;;5094501;27;39910;-80
2022/02/11 11:11:12;;;;;;;14.00;2.00;;;7.60;99.90;;;;;;5090286;27;37943;-80
2022/02/11 11:13:39;;;;;;;16.70;2.73;;;7.60;99.90;;;;;;5073862;28;40909;-80
2022/02/11 11:16:10;;;;;;;8.37;1.60;;;7.60;99.90;;;;;;5094972;27;40044;-80
2022/02/11 11:18:37;;;;;;;15.53;2.37;;;7.70;99.90;;;;;;5107921;27;39160;-80
2022/02/11 11:21:07;;;;;;;11.40;1.73;;;7.60;99.90;;;;;;5098255;27;37484;-79
2022/02/11 11:23:37;;;;;;;19.30;1.60;;;7.40;99.90;;;;;;5087920;27;38554;-80
2022/02/11 11:26:10;;;;;;;10.53;2.13;;;7.40;99.90;;;;;;5088127;27;39226;-80
2022/02/11 11:28:50;;;;;;;19.93;3.37;;;7.50;99.90;;;;;;5097610;27;38080;-80
2022/02/11 11:31:25;;;;;;;11.77;1.83;;;7.50;99.90;;;;;;5099611;27;38235;-80
2022/02/11 11:34:14;;;;;;;14.37;2.00;;;7.60;99.90;;;;;;5100950;27;38075;-81
2022/02/11 11:36:44;;;;;;;16.03;2.07;;;7.70;99.90;;;;;;5089615;27;48529;-80
2022/02/11 11:39:10;;;;;;;15.03;2.43;;;7.80;99.90;;;;;;5088060;27;38858;-81
2022/02/11 11:41:37;;;;;;;18.07;2.10;;;7.80;99.90;;;;;;5101968;27;37492;-80
2022/02/11 11:44:30;;;;;;;13.33;2.33;;;7.70;99.90;;;;;;5093125;27;37472;-80
2022/02/11 11:47:02;;;;;;;10.87;2.00;;;7.70;99.90;;;;;;5097472;27;38271;-81
2022/02/11 11:49:38;;;;;;;;;;;7.50;99.90;;;;;;5096541;27;47575;-80
2022/02/11 11:52:05;;;;;;;11.50;2.20;;;7.50;99.90;;;;;;5095514;27;38535;-80
2022/02/11 11:54:32;;;;;;;12.40;2.37;;;7.80;99.90;;;;;;5106380;27;39644;-80
2022/02/11 11:57:17;;;;;;;11.70;2.00;;;8.00;99.90;;;;;;5097037;27;37756;-80
2022/02/11 11:59:51;;;;;;;14.67;2.20;;;8.10;99.90;;;;;;5099562;27;47264;-80
2022/02/11 12:02:20;;;;;;;11.50;2.00;;;8.30;99.90;;;;;;5095575;27;37051;-79
2022/02/11 12:04:54;;;;;;;17.20;2.03;;;8.50;99.90;;;;;;5081965;27;38663;-80
2022/02/11 12:07:34;;;;;;;9.07;1.77;;;8.50;99.90;;;;;;5096071;27;38954;-80
2022/02/11 12:10:03;;;;;;;8.20;2.43;;;8.60;99.90;;;;;;5098076;27;37463;-81
2022/02/11 12:12:32;;;;;;;9.07;1.60;;;8.60;99.90;;;;;;5091294;27;47149;-80
2022/02/11 12:15:04;;;;;;;10.33;1.80;;;8.60;99.90;;;;;;5086058;27;39903;-80
2022/02/11 12:17:31;;;;;;;7.32;1.38;;;8.60;99.90;;;;;;5102216;27;47142;-80
2022/02/11 12:19:58;;;;;;;11.87;1.70;;;8.50;99.90;;;;;;5096138;27;38041;-81
2022/02/11 12:22:27;;;;;;;10.50;1.83;;;8.60;99.90;;;;;;5079344;27;36812;-80
2022/02/11 12:27:49;;;;;;;15.37;1.73;;;8.40;99.90;;;;;;5088590;27;48509;-79
2022/02/11 12:30:22;;;;;;;19.03;2.50;;;8.30;99.90;;;;;;5097437;27;36965;-80
2022/02/11 12:35:32;;;;;;;9.87;1.70;;;8.20;99.90;;;;;;5076326;27;20048;-80
2022/02/11 12:38:02;;;;;;;13.43;1.50;;;8.10;99.90;;;;;;5069193;27;37042;-79
2022/02/11 12:40:31;;;;;;;8.90;1.50;;;8.10;99.90;;;;;;5078659;28;47022;-79
2022/02/11 12:43:05;;;;;;;9.00;1.70;;;7.90;99.90;;;;;;5075017;28;36703;-78
2022/02/11 12:45:34;;;;;;;8.17;1.67;;;7.70;99.90;;;;;;5074329;27;48986;-80
2022/02/11 12:48:02;;;;;;;11.27;1.67;;;7.60;99.90;;;;;;5070216;28;37515;-81
2022/02/11 12:50:34;;;;;;;8.80;1.60;;;7.70;99.90;;;;;;5076680;27;47340;-81
2022/02/11 12:53:04;;;;;;;6.28;2.10;;;8.00;99.90;;;;;;5075571;28;36569;-81
2022/02/11 12:55:32;;;;;;;11.40;1.90;;;8.30;99.90;;;;;;5073959;27;47434;-80
2022/02/11 12:58:01;;;;;;;11.47;2.00;;;8.30;99.90;;;;;;5074272;28;37426;-80
2022/02/11 13:00:30;;;;;;;10.90;1.70;;;8.50;99.90;;;;;;5082098;27;47299;-80
2022/02/11 13:03:00;;;;;;;11.63;1.87;;;8.70;99.90;;;;;;5077850;27;38279;-79
2022/02/11 13:05:28;;;;;;;12.97;1.77;;;9.00;99.90;;;;;;5077907;27;38244;-81
2022/02/11 13:07:56;;;;;;;11.40;1.90;;;9.30;99.90;;;;;;5095398;28;37410;-81
2022/02/11 13:10:27;;;;;;;12.37;1.60;;;9.40;99.90;;;;;;5094464;27;37845;-82
2022/02/11 13:12:59;;;;;;;13.63;2.30;;;9.40;99.90;;;;;;5098301;27;36348;-81
2022/02/11 13:15:36;;;;;;;14.07;1.67;;;9.40;99.90;;;;;;5092484;27;37871;-81
2022/02/11 13:18:35;;;;;;;9.87;1.37;;;9.10;99.90;;;;;;5073903;27;37038;-81
2022/02/11 13:21:05;;;;;;;11.80;2.07;;;9.20;99.90;;;;;;5082896;27;39377;-80
2022/02/11 13:23:32;;;;;;;14.23;2.17;;;9.50;99.90;;;;;;5082782;28;37089;-80
2022/02/11 13:26:04;;;;;;;11.50;2.17;;;9.50;99.90;;;;;;5093604;27;36461;-80
2022/02/11 13:28:43;;;;;;;14.00;1.80;;;9.50;99.90;;;;;;5082923;28;48174;-81
2022/02/11 13:31:09;;;;;;;16.13;2.73;;;9.30;99.90;;;;;;5080615;27;37130;-80
2022/02/11 13:33:36;;;;;;;13.97;2.00;;;9.40;99.90;;;;;;5097198;27;37997;-80
2022/02/11 13:36:11;;;;;;;11.47;1.77;;;9.30;99.90;;;;;;5086719;27;37819;-80
2022/02/11 13:39:00;;;;;;;11.23;2.00;;;9.10;99.90;;;;;;5097421;28;37408;-83
2022/02/11 13:41:38;;;;;;;10.90;2.30;;;8.50;99.90;;;;;;5100124;27;38226;-82
2022/02/11 13:44:23;;;;;;;12.80;2.07;;;8.00;99.90;;;;;;5090488;27;38588;-83
2022/02/11 13:47:16;;;;;;;13.53;2.00;;;7.70;99.90;;;;;;5087771;28;40801;-82
2022/02/11 13:53:52;;;;;;;14.13;2.27;;;7.30;99.90;;;;;;5118518;22;50009;-83
2022/02/11 13:56:40;;;;;;;10.07;1.60;;;7.00;99.90;;;;;;5086356;28;36183;-83
2022/02/11 13:59:11;;;;;;;13.97;2.20;;;6.80;99.90;;;;;;5069001;27;39487;-83
2022/02/11 14:01:40;;;;;;;5.83;1.13;;;6.80;99.90;;;;;;5091122;27;38958;-83
2022/02/11 14:04:08;;;;;;;11.77;1.60;;;6.90;99.90;;;;;;5096727;27;38113;-83
2022/02/11 14:06:37;;;;;;;7.23;1.83;;;7.00;99.90;;;;;;5090864;28;35940;-83
2022/02/11 14:09:10;;;;;;;7.70;1.30;;;7.10;99.90;;;;;;5093629;28;40224;-82
2022/02/11 14:11:40;;;;;;;6.68;1.13;;;7.00;99.90;;;;;;5093308;28;37570;-83
2022/02/11 14:14:11;;;;;;;13.93;1.47;;;6.90;99.90;;;;;;5084977;28;38524;-83
2022/02/11 14:16:38;;;;;;;8.50;1.93;;;6.90;99.90;;;;;;5101624;27;37784;-83
2022/02/11 14:19:04;;;;;;;9.23;1.77;;;6.90;99.90;;;;;;5088163;27;40284;-83
2022/02/11 14:21:30;;;;;;;14.37;2.00;;;6.80;99.90;;;;;;5083430;27;39448;-84
2022/02/11 14:23:56;;;;;;;9.27;1.70;;;6.80;99.90;;;;;;5088865;27;39722;-83
2022/02/11 14:26:23;;;;;;;10.37;2.03;;;6.80;99.90;;;;;;5080344;28;38201;-83
2022/02/11 14:28:49;;;;;;;10.77;2.13;;;6.90;99.90;;;;;;5081701;28;39028;-82
2022/02/11 14:31:15;;;;;;;14.13;1.97;;;6.90;99.90;;;;;;5081370;28;40016;-82
2022/02/11 14:33:41;;;;;;;15.83;2.77;;;6.90;99.90;;;;;;5086769;27;36120;-83
2022/02/11 14:36:08;;;;;;;13.90;2.00;;;6.90;99.90;;;;;;5084131;27;37933;-81
2022/02/11 14:38:34;;;;;;;20.33;2.40;;;6.80;99.90;;;;;;5078044;28;37728;-81
2022/02/11 14:43:45;;;;;;;8.00;1.70;;;6.70;99.90;;;;;;5078463;27;49557;-81
2022/02/11 14:46:11;;;;;;;8.00;2.10;;;6.60;99.90;;;;;;5072364;27;37353;-82
2022/02/11 14:48:40;;;;;;;10.20;1.67;;;6.60;99.90;;;;;;5076103;28;39205;-81
2022/02/11 14:51:06;;;;;;;9.30;1.67;;;6.70;99.90;;;;;;5073297;27;39460;-81
2022/02/11 14:53:35;;;;;;;14.20;1.90;;;6.80;99.90;;;;;;5078355;27;36852;-81
2022/02/11 14:56:03;;;;;;;10.93;2.03;;;6.80;99.90;;;;;;5061869;28;36372;-82
2022/02/11 14:58:29;;;;;;;9.17;2.30;;;6.80;99.90;;;;;;5056075;28;37568;-81
2022/02/11 15:00:55;;;;;;;15.53;2.50;;;6.80;99.90;;;;;;5069436;28;37016;-81
2022/02/11 15:03:21;;;;;;;12.23;2.43;;;6.80;99.90;;;;;;5072563;27;38310;-81
2022/02/11 15:05:48;;;;;;;16.67;1.97;;;7.10;99.90;;;;;;5071873;28;37453;-81
2022/02/11 15:08:14;;;;;;;7.83;1.67;;;7.30;99.90;;;;;;5057049;27;40531;-81
2022/02/11 15:10:40;;;;;;;12.93;2.13;;;7.50;99.90;;;;;;5075248;28;38561;-82
2022/02/11 15:13:09;;;;;;;14.50;2.37;;;7.60;99.90;;;;;;5071491;28;37178;-81
2022/02/11 15:15:40;;;;;;;14.83;2.27;;;7.70;99.90;;;;;;5076880;27;36328;-82
2022/02/11 15:18:08;;;;;;;11.60;2.55;;;7.70;99.90;;;;;;5073071;28;38278;-82
2022/02/11 15:20:38;;;;;;;10.77;1.70;;;7.70;99.90;;;;;;5066720;28;37130;-82
2022/02/11 15:23:05;;;;;;;12.27;1.77;;;7.70;99.90;;;;;;5078040;27;38361;-82
2022/02/11 15:25:31;;;;;;;12.10;2.10;;;7.80;99.90;;;;;;5096128;27;36451;-82
2022/02/11 15:27:57;;;;;;;11.03;2.33;;;7.80;99.90;;;;;;5079351;27;38705;-82
2022/02/11 15:30:24;;;;;;;10.97;2.30;;;7.90;99.90;;;;;;5076459;28;38460;-81
2022/02/11 15:32:50;;;;;;;12.77;1.73;;;8.00;99.90;;;;;;5077620;27;38887;-81
2022/02/11 15:35:17;;;;;;;8.93;1.97;;;7.90;99.90;;;;;;5077421;28;36285;-82
2022/02/11 15:37:43;;;;;;;9.00;1.37;;;7.70;99.90;;;;;;5071838;28;37601;-82
2022/02/11 15:40:09;;;;;;;18.90;1.83;;;7.60;99.90;;;;;;5074126;28;38213;-82
2022/02/11 15:42:36;;;;;;;15.17;1.80;;;7.50;99.90;;;;;;5082181;27;37416;-81
2022/02/11 15:45:03;;;;;;;9.93;1.93;;;7.50;99.90;;;;;;5075877;27;38320;-79
2022/02/11 15:47:29;;;;;;;9.97;1.70;;;7.50;99.90;;;;;;5076310;27;36994;-80
2022/02/11 15:49:56;;;;;;;10.57;1.77;;;7.30;99.90;;;;;;5079574;28;38145;-81
2022/02/11 15:52:22;;;;;;;11.80;2.00;;;7.30;99.90;;;;;;5073126;27;38054;-81
2022/02/11 15:54:49;;;;;;;10.30;1.67;;;7.40;99.90;;;;;;5078463;28;36416;-81
2022/02/11 15:57:15;;;;;;;8.07;1.57;;;7.50;99.90;;;;;;5073639;27;39791;-81
2022/02/11 15:59:42;;;;;;;9.50;1.63;;;7.60;99.90;;;;;;5075273;28;38625;-81
2022/02/11 16:02:09;;;;;;;10.50;1.53;;;7.60;99.90;;;;;;5075987;28;39826;-82
2022/02/11 16:04:35;;;;;;;10.67;1.50;;;7.70;99.90;;;;;;5074991;28;38094;-81
2022/02/11 16:07:01;;;;;;;9.27;1.87;;;7.80;99.90;;;;;;5080409;27;38904;-81
2022/02/11 16:09:28;;;;;;;14.87;1.80;;;7.70;99.90;;;;;;5073117;28;48550;-81
2022/02/11 16:11:57;;;;;;;11.03;1.70;;;7.60;99.90;;;;;;5069556;27;37890;-80
2022/02/11 16:14:24;;;;;;;8.77;1.33;;;7.50;99.90;;;;;;5076173;28;37845;-81
2022/02/11 16:16:52;;;;;;;7.40;1.40;;;7.50;99.90;;;;;;5071774;27;38039;-81
2022/02/11 16:19:19;;;;;;;11.33;1.67;;;7.40;99.90;;;;;;5070152;27;38963;-81
2022/02/11 16:21:45;;;;;;;8.83;1.30;;;7.20;99.90;;;;;;5071013;27;38252;-80
2022/02/11 16:24:11;;;;;;;13.73;1.87;;;7.10;99.90;;;;;;5073242;28;36121;-81
2022/02/11 16:26:38;;;;;;;11.10;1.60;;;7.00;99.90;;;;;;5073232;28;37606;-81
2022/02/11 16:29:04;;;;;;;10.33;1.97;;;7.00;99.90;;;;;;5076535;28;38525;-80
2022/02/11 16:31:31;;;;;;;10.30;1.60;;;6.80;99.90;;;;;;5074837;27;47880;-81
2022/02/11 16:33:57;;;;;;;13.53;1.90;;;6.80;99.90;;;;;;5071917;28;36745;-82
2022/02/11 16:36:26;;;;;;;9.37;1.53;;;6.70;99.90;;;;;;5064853;28;38221;-80
2022/02/11 16:38:53;;;;;;;10.83;2.03;;;6.40;99.90;;;;;;5073715;28;38152;-81
2022/02/11 16:41:21;;;;;;;9.93;2.10;;;6.30;99.90;;;;;;5070452;28;39790;-80
2022/02/11 16:43:47;;;;;;;10.77;1.60;;;6.10;99.90;;;;;;5072738;27;37917;-80
2022/02/11 16:46:14;;;;;;;10.10;2.23;;;6.00;99.90;;;;;;5065273;27;39119;-80
2022/02/11 16:48:40;;;;;;;7.97;1.67;;;5.90;99.90;;;;;;5068882;27;39228;-80
2022/02/11 16:51:06;;;;;;;7.77;1.53;;;5.80;99.90;;;;;;5070734;27;38474;-80
2022/02/11 16:53:33;;;;;;;8.47;2.53;;;5.70;99.90;;;;;;5072492;28;37754;-80
2022/02/11 16:55:59;;;;;;;6.73;2.17;;;5.60;99.90;;;;;;5070814;27;38694;-81